sensor_id;sensor_type;location;lat;lon;timestamp;pressure;altitude;pressure_sealevel;temperature;humidity
1776;BME280;885;42.626;23.200;2023-02-28T00:01:08;166832.31;;;6.21;100.00
1776;BME280;885;42.626;23.200;2023-02-28T00:03:35;166844.72;;;6.25;100.00
1776;BME280;885;42.626;23.200;2023-02-28T00:06:05;166825.44;;;6.18;100.00
1776;BME280;885;42.626;23.200;2023-02-28T00:08:32;166830.94;;;6.20;100.00
1776;BME280;885;42.626;23.200;2023-02-28T00:11:01;166841.94;;;6.24;100.00
1776;BME280;885;42.626;23.200;2023-02-28T00:13:28;166857.09;;;6.30;100.00
1776;BME280;885;42.626;23.200;2023-02-28T00:16:02;166866.69;;;6.33;100.00
1776;BME280;885;42.626;23.200;2023-02-28T00:18:28;166861.19;;;6.31;100.00
1776;BME280;885;42.626;23.200;2023-02-28T00:20:55;166883.19;;;6.39;100.00
1776;BME280;885;42.626;23.200;2023-02-28T00:23:24;166910.66;;;6.50;100.00
1776;BME280;885;42.626;23.200;2023-02-28T00:25:51;166850.22;;;6.27;100.00
1776;BME280;885;42.626;23.200;2023-02-28T00:28:18;166887.28;;;6.41;100.00
1776;BME280;885;42.626;23.200;2023-02-28T00:30:45;166905.16;;;6.48;100.00
1776;BME280;885;42.626;23.200;2023-02-28T00:33:12;166901.06;;;6.46;100.00
1776;BME280;885;42.626;23.200;2023-02-28T00:35:39;166921.66;;;6.54;100.00
1776;BME280;885;42.626;23.200;2023-02-28T00:38:05;166870.81;;;6.35;100.00
1776;BME280;885;42.626;23.200;2023-02-28T00:40:34;166736.13;;;5.86;100.00
1776;BME280;885;42.626;23.200;2023-02-28T00:43:00;166734.75;;;5.85;100.00
1776;BME280;885;42.626;23.200;2023-02-28T00:45:27;166751.22;;;5.91;100.00
1776;BME280;885;42.626;23.200;2023-02-28T00:47:54;166704.44;;;5.74;100.00
1776;BME280;885;42.626;23.200;2023-02-28T00:50:20;166655.00;;;5.56;100.00
1776;BME280;885;42.626;23.200;2023-02-28T00:52:48;166698.94;;;5.72;100.00
1776;BME280;885;42.626;23.200;2023-02-28T00:55:14;166716.81;;;5.79;100.00
1776;BME280;885;42.626;23.200;2023-02-28T00:57:43;166672.88;;;5.62;100.00
1776;BME280;885;42.626;23.200;2023-02-28T01:00:10;166715.44;;;5.78;100.00
1776;BME280;885;42.626;23.200;2023-02-28T01:02:37;166755.38;;;5.93;100.00
1776;BME280;885;42.626;23.200;2023-02-28T01:05:05;166786.97;;;6.04;100.00
1776;BME280;885;42.626;23.200;2023-02-28T01:07:31;166797.97;;;6.08;100.00
1776;BME280;885;42.626;23.200;2023-02-28T01:09:58;166800.75;;;6.09;100.00
1776;BME280;885;42.626;23.200;2023-02-28T01:12:25;166803.47;;;6.10;100.00
1776;BME280;885;42.626;23.200;2023-02-28T01:14:53;166800.75;;;6.09;100.00
1776;BME280;885;42.626;23.200;2023-02-28T01:17:20;166797.97;;;6.08;100.00
1776;BME280;885;42.626;23.200;2023-02-28T01:19:46;166734.75;;;5.85;100.00
1776;BME280;885;42.626;23.200;2023-02-28T01:22:13;166711.31;;;5.77;100.00
1776;BME280;885;42.626;23.200;2023-02-28T01:24:40;166730.63;;;5.84;100.00
1776;BME280;885;42.626;23.200;2023-02-28T01:27:07;166732.03;;;5.84;100.00
1776;BME280;885;42.626;23.200;2023-02-28T01:29:33;166732.03;;;5.84;100.00
1776;BME280;885;42.626;23.200;2023-02-28T01:32:02;166737.53;;;5.86;100.00
1776;BME280;885;42.626;23.200;2023-02-28T01:34:28;166705.84;;;5.75;100.00
1776;BME280;885;42.626;23.200;2023-02-28T01:36:55;166701.72;;;5.73;100.00
1776;BME280;885;42.626;23.200;2023-02-28T01:39:24;166674.25;;;5.63;100.00
1776;BME280;885;42.626;23.200;2023-02-28T01:41:50;166666.00;;;5.60;100.00
1776;BME280;885;42.626;23.200;2023-02-28T01:47:41;166727.81;;;5.83;100.00
1776;BME280;885;42.626;23.200;2023-02-28T01:50:11;166741.63;;;5.88;100.00
1776;BME280;885;42.626;23.200;2023-02-28T01:52:40;166759.50;;;5.94;100.00
1776;BME280;885;42.626;23.200;2023-02-28T01:55:08;166773.22;;;5.99;100.00
1776;BME280;885;42.626;23.200;2023-02-28T01:57:39;166756.72;;;5.93;100.00
1776;BME280;885;42.626;23.200;2023-02-28T02:00:09;166767.72;;;5.97;100.00
1776;BME280;885;42.626;23.200;2023-02-28T02:02:41;166786.97;;;6.04;100.00
1776;BME280;885;42.626;23.200;2023-02-28T02:05:10;166792.47;;;6.06;100.00
1776;BME280;885;42.626;23.200;2023-02-28T02:07:39;166786.97;;;6.04;100.00
1776;BME280;885;42.626;23.200;2023-02-28T02:10:14;166762.22;;;5.95;100.00
1776;BME280;885;42.626;23.200;2023-02-28T02:12:57;166754.00;;;5.92;100.00
1776;BME280;885;42.626;23.200;2023-02-28T02:15:32;166679.75;;;5.65;100.00
1776;BME280;885;42.626;23.200;2023-02-28T02:18:05;166649.50;;;5.54;100.00
1776;BME280;885;42.626;23.200;2023-02-28T02:20:50;166671.47;;;5.62;100.00
1776;BME280;885;42.626;23.200;2023-02-28T02:23:56;166663.28;;;5.59;100.00
1776;BME280;885;42.626;23.200;2023-02-28T02:26:49;166675.59;;;5.63;100.00
1776;BME280;885;42.626;23.200;2023-02-28T02:29:35;166644.03;;;5.52;100.00
1776;BME280;885;42.626;23.200;2023-02-28T02:32:20;166649.50;;;5.54;100.00
1776;BME280;885;42.626;23.200;2023-02-28T02:35:04;166666.00;;;5.60;100.00
1776;BME280;885;42.626;23.200;2023-02-28T02:37:38;166705.84;;;5.75;100.00
1776;BME280;885;42.626;23.200;2023-02-28T02:40:13;166732.03;;;5.84;100.00
1776;BME280;885;42.626;23.200;2023-02-28T02:42:47;166762.22;;;5.95;100.00
1776;BME280;885;42.626;23.200;2023-02-28T02:45:18;166778.72;;;6.01;100.00
1776;BME280;885;42.626;23.200;2023-02-28T02:47:48;166762.22;;;5.95;100.00
1776;BME280;885;42.626;23.200;2023-02-28T02:50:21;166633.03;;;5.48;100.00
1776;BME280;885;42.626;23.200;2023-02-28T02:52:52;166543.78;;;5.15;100.00
1776;BME280;885;42.626;23.200;2023-02-28T02:55:22;166513.56;;;5.04;100.00
1776;BME280;885;42.626;23.200;2023-02-28T02:57:53;166523.16;;;5.08;100.00
1776;BME280;885;42.626;23.200;2023-02-28T03:00:23;166564.34;;;5.23;100.00
1776;BME280;885;42.626;23.200;2023-02-28T03:02:53;166591.81;;;5.33;100.00
1776;BME280;885;42.626;23.200;2023-02-28T03:05:26;166593.19;;;5.33;100.00
1776;BME280;885;42.626;23.200;2023-02-28T03:07:53;166608.28;;;5.39;100.00
1776;BME280;885;42.626;23.200;2023-02-28T03:10:32;166635.75;;;5.49;100.00
1776;BME280;885;42.626;23.200;2023-02-28T03:16:10;166660.50;;;5.58;100.00
1776;BME280;885;42.626;23.200;2023-02-28T03:18:50;166671.47;;;5.62;100.00
1776;BME280;885;42.626;23.200;2023-02-28T03:21:25;166687.97;;;5.68;100.00
1776;BME280;885;42.626;23.200;2023-02-28T03:23:59;166704.44;;;5.74;100.00
1776;BME280;885;42.626;23.200;2023-02-28T03:26:31;166719.59;;;5.80;100.00
1776;BME280;885;42.626;23.200;2023-02-28T03:29:03;166690.75;;;5.69;100.00
1776;BME280;885;42.626;23.200;2023-02-28T03:31:36;166687.97;;;5.68;100.00
1776;BME280;885;42.626;23.200;2023-02-28T03:34:07;166685.25;;;5.67;100.00
1776;BME280;885;42.626;23.200;2023-02-28T03:36:38;166642.63;;;5.51;100.00
1776;BME280;885;42.626;23.200;2023-02-28T03:39:13;166619.28;;;5.43;100.00
1776;BME280;885;42.626;23.200;2023-02-28T03:41:43;166597.31;;;5.35;100.00
1776;BME280;885;42.626;23.200;2023-02-28T03:44:17;166583.59;;;5.30;100.00
1776;BME280;885;42.626;23.200;2023-02-28T03:46:52;166564.34;;;5.23;100.00
1776;BME280;885;42.626;23.200;2023-02-28T03:49:22;166567.06;;;5.24;100.00
1776;BME280;885;42.626;23.200;2023-02-28T03:51:54;166573.94;;;5.26;100.00
1776;BME280;885;42.626;23.200;2023-02-28T03:54:25;166575.34;;;5.27;100.00
1776;BME280;885;42.626;23.200;2023-02-28T03:56:59;166560.25;;;5.21;100.00
1776;BME280;885;42.626;23.200;2023-02-28T03:59:32;166531.41;;;5.11;100.00
1776;BME280;885;42.626;23.200;2023-02-28T04:02:01;166473.72;;;4.90;100.00
1776;BME280;885;42.626;23.200;2023-02-28T04:04:28;166469.56;;;4.88;100.00
1776;BME280;885;42.626;23.200;2023-02-28T04:07:03;166495.69;;;4.98;100.00
1776;BME280;885;42.626;23.200;2023-02-28T04:09:31;166501.19;;;5.00;100.00
1776;BME280;885;42.626;23.200;2023-02-28T04:11:58;166513.56;;;5.04;100.00
1776;BME280;885;42.626;23.200;2023-02-28T04:14:25;166479.22;;;4.92;100.00
1776;BME280;885;42.626;23.200;2023-02-28T04:16:52;166487.44;;;4.95;100.00
1776;BME280;885;42.626;23.200;2023-02-28T04:19:19;166418.78;;;4.69;100.00
1776;BME280;885;42.626;23.200;2023-02-28T04:21:47;166387.22;;;4.58;100.00
1776;BME280;885;42.626;23.200;2023-02-28T04:24:17;166385.84;;;4.57;100.00
1776;BME280;885;42.626;23.200;2023-02-28T04:26:46;166429.75;;;4.73;100.00
1776;BME280;885;42.626;23.200;2023-02-28T04:29:17;166457.25;;;4.83;100.00
1776;BME280;885;42.626;23.200;2023-02-28T04:31:44;166473.72;;;4.90;100.00
1776;BME280;885;42.626;23.200;2023-02-28T04:34:11;166488.81;;;4.95;100.00
1776;BME280;885;42.626;23.200;2023-02-28T04:36:38;166503.91;;;5.01;100.00
1776;BME280;885;42.626;23.200;2023-02-28T04:39:05;166536.91;;;5.13;100.00
1776;BME280;885;42.626;23.200;2023-02-28T04:41:33;166539.63;;;5.14;100.00
1776;BME280;885;42.626;23.200;2023-02-28T04:43:59;166545.09;;;5.16;100.00
1776;BME280;885;42.626;23.200;2023-02-28T04:46:26;166545.09;;;5.16;100.00
1776;BME280;885;42.626;23.200;2023-02-28T04:48:53;166528.63;;;5.10;100.00
1776;BME280;885;42.626;23.200;2023-02-28T04:51:20;166459.97;;;4.84;100.00
1776;BME280;885;42.626;23.200;2023-02-28T04:53:48;166376.25;;;4.54;100.00
1776;BME280;885;42.626;23.200;2023-02-28T04:56:17;166427.03;;;4.72;100.00
1776;BME280;885;42.626;23.200;2023-02-28T04:58:45;166479.22;;;4.92;100.00
1776;BME280;885;42.626;23.200;2023-02-28T05:01:19;166465.47;;;4.87;100.00
1776;BME280;885;42.626;23.200;2023-02-28T05:03:46;166443.50;;;4.78;100.00
1776;BME280;885;42.626;23.200;2023-02-28T05:06:13;166450.38;;;4.81;100.00
1776;BME280;885;42.626;23.200;2023-02-28T05:08:40;166449.00;;;4.80;100.00
1776;BME280;885;42.626;23.200;2023-02-28T05:11:13;166481.94;;;4.93;100.00
1776;BME280;885;42.626;23.200;2023-02-28T05:13:40;166519.03;;;5.06;100.00
1776;BME280;885;42.626;23.200;2023-02-28T05:16:08;166501.19;;;5.00;100.00
1776;BME280;885;42.626;23.200;2023-02-28T05:18:35;166503.91;;;5.01;100.00
1776;BME280;885;42.626;23.200;2023-02-28T05:21:02;166523.16;;;5.08;100.00
1776;BME280;885;42.626;23.200;2023-02-28T05:23:29;166557.47;;;5.20;100.00
1776;BME280;885;42.626;23.200;2023-02-28T05:25:56;166589.09;;;5.32;100.00
1776;BME280;885;42.626;23.200;2023-02-28T05:28:23;166612.41;;;5.40;100.00
1776;BME280;885;42.626;23.200;2023-02-28T05:30:50;166635.75;;;5.49;100.00
1776;BME280;885;42.626;23.200;2023-02-28T05:33:18;166655.00;;;5.56;100.00
1776;BME280;885;42.626;23.200;2023-02-28T05:35:44;166674.25;;;5.63;100.00
1776;BME280;885;42.626;23.200;2023-02-28T05:38:11;166676.97;;;5.64;100.00
1776;BME280;885;42.626;23.200;2023-02-28T05:40:38;166696.22;;;5.71;100.00
1776;BME280;885;42.626;23.200;2023-02-28T05:43:05;166707.22;;;5.75;100.00
1776;BME280;885;42.626;23.200;2023-02-28T05:45:32;166698.94;;;5.72;100.00
1776;BME280;885;42.626;23.200;2023-02-28T05:47:59;166666.00;;;5.60;100.00
1776;BME280;885;42.626;23.200;2023-02-28T05:50:27;166635.75;;;5.49;100.00
1776;BME280;885;42.626;23.200;2023-02-28T05:52:54;166608.28;;;5.39;100.00
1776;BME280;885;42.626;23.200;2023-02-28T05:55:20;166601.41;;;5.36;100.00
1776;BME280;885;42.626;23.200;2023-02-28T05:57:47;166645.41;;;5.52;100.00
1776;BME280;885;42.626;23.200;2023-02-28T06:00:14;166682.47;;;5.66;100.00
1776;BME280;885;42.626;23.200;2023-02-28T06:02:43;166698.94;;;5.72;100.00
1776;BME280;885;42.626;23.200;2023-02-28T06:05:13;166714.09;;;5.78;100.00
1776;BME280;885;42.626;23.200;2023-02-28T06:07:41;166745.75;;;5.89;100.00
1776;BME280;885;42.626;23.200;2023-02-28T06:10:09;166723.69;;;5.81;100.00
1776;BME280;885;42.626;23.200;2023-02-28T06:12:36;166689.34;;;5.69;100.00
1776;BME280;885;42.626;23.200;2023-02-28T06:15:04;166656.41;;;5.56;100.00
1776;BME280;885;42.626;23.200;2023-02-28T06:17:31;166634.41;;;5.48;100.00
1776;BME280;885;42.626;23.200;2023-02-28T06:19:57;166613.78;;;5.41;100.00
1776;BME280;885;42.626;23.200;2023-02-28T06:22:24;166645.41;;;5.52;100.00
1776;BME280;885;42.626;23.200;2023-02-28T06:24:52;166720.97;;;5.80;100.00
1776;BME280;885;42.626;23.200;2023-02-28T06:27:20;166755.38;;;5.93;100.00
1776;BME280;885;42.626;23.200;2023-02-28T06:29:47;166793.84;;;6.07;100.00
1776;BME280;885;42.626;23.200;2023-02-28T06:32:14;166824.06;;;6.18;100.00
1776;BME280;885;42.626;23.200;2023-02-28T06:34:40;166866.69;;;6.33;100.00
1776;BME280;885;42.626;23.200;2023-02-28T06:37:07;166921.66;;;6.54;100.00
1776;BME280;885;42.626;23.200;2023-02-28T06:39:34;166855.69;;;6.29;100.00
1776;BME280;885;42.626;23.200;2023-02-28T06:42:02;166862.59;;;6.32;100.00
1776;BME280;885;42.626;23.200;2023-02-28T06:44:30;166913.44;;;6.51;100.00
1776;BME280;885;42.626;23.200;2023-02-28T06:47:00;166993.19;;;6.80;100.00
1776;BME280;885;42.626;23.200;2023-02-28T06:49:27;167059.19;;;7.04;100.00
1776;BME280;885;42.626;23.200;2023-02-28T06:51:54;167083.94;;;7.13;100.00
1776;BME280;885;42.626;23.200;2023-02-28T06:54:21;167052.34;;;7.01;100.00
1776;BME280;885;42.626;23.200;2023-02-28T06:56:48;167077.06;;;7.10;100.00
1776;BME280;885;42.626;23.200;2023-02-28T06:59:16;167096.34;;;7.17;100.00
1776;BME280;885;42.626;23.200;2023-02-28T07:01:43;167075.72;;;7.10;100.00
1776;BME280;885;42.626;23.200;2023-02-28T07:04:10;167092.22;;;7.16;100.00
1776;BME280;885;42.626;23.200;2023-02-28T07:06:38;167034.47;;;6.95;100.00
1776;BME280;885;42.626;23.200;2023-02-28T07:09:05;167024.78;;;6.91;100.00
1776;BME280;885;42.626;23.200;2023-02-28T07:11:32;167045.47;;;6.99;100.00
1776;BME280;885;42.626;23.200;2023-02-28T07:13:59;167070.19;;;7.08;100.00
1776;BME280;885;42.626;23.200;2023-02-28T07:16:27;167099.06;;;7.18;100.00
1776;BME280;885;42.626;23.200;2023-02-28T07:18:54;167111.47;;;7.23;100.00
1776;BME280;885;42.626;23.200;2023-02-28T07:21:21;167070.19;;;7.08;100.00
1776;BME280;885;42.626;23.200;2023-02-28T07:23:48;167126.63;;;7.29;100.00
1776;BME280;885;42.626;23.200;2023-02-28T07:26:16;167159.63;;;7.41;100.00
1776;BME280;885;42.626;23.200;2023-02-28T07:28:45;167191.25;;;7.52;100.00
1776;BME280;885;42.626;23.200;2023-02-28T07:31:12;167206.41;;;7.58;100.00
1776;BME280;885;42.626;23.200;2023-02-28T07:33:41;167057.84;;;7.03;100.00
1776;BME280;885;42.626;23.200;2023-02-28T07:36:10;166995.91;;;6.81;100.00
1776;BME280;885;42.626;23.200;2023-02-28T07:38:41;167006.97;;;6.85;100.00
1776;BME280;885;42.626;23.200;2023-02-28T07:41:09;167037.19;;;6.96;100.00
1776;BME280;885;42.626;23.200;2023-02-28T07:43:36;166931.31;;;6.57;100.00
1776;BME280;885;42.626;23.200;2023-02-28T07:46:04;166916.16;;;6.52;100.00
1776;BME280;885;42.626;23.200;2023-02-28T07:48:32;166990.41;;;6.79;100.00
1776;BME280;885;42.626;23.200;2023-02-28T07:51:01;167063.34;;;7.05;100.00
1776;BME280;885;42.626;23.200;2023-02-28T07:53:28;167114.22;;;7.24;100.00
1776;BME280;885;42.626;23.200;2023-02-28T07:55:55;167028.97;;;6.93;100.00
1776;BME280;885;42.626;23.200;2023-02-28T07:58:23;167039.97;;;6.97;100.00
1776;BME280;885;42.626;23.200;2023-02-28T08:00:50;167061.94;;;7.05;100.00
1776;BME280;885;42.626;23.200;2023-02-28T08:03:17;167083.94;;;7.13;100.00
1776;BME280;885;42.626;23.200;2023-02-28T08:05:45;167119.72;;;7.26;100.00
1776;BME280;885;42.626;23.200;2023-02-28T08:08:14;167163.75;;;7.42;100.00
1776;BME280;885;42.626;23.200;2023-02-28T08:10:42;167225.66;;;7.65;100.00
1776;BME280;885;42.626;23.200;2023-02-28T08:13:09;167268.34;;;7.80;100.00
1776;BME280;885;42.626;23.200;2023-02-28T08:15:36;167304.13;;;7.93;100.00
1776;BME280;885;42.626;23.200;2023-02-28T08:18:03;167291.75;;;7.89;100.00
1776;BME280;885;42.626;23.200;2023-02-28T08:20:29;167280.72;;;7.85;100.00
1776;BME280;885;42.626;23.200;2023-02-28T08:22:56;167305.47;;;7.94;100.00
1776;BME280;885;42.626;23.200;2023-02-28T08:25:24;167306.84;;;7.94;100.00
1776;BME280;885;42.626;23.200;2023-02-28T08:27:52;167309.63;;;7.95;100.00
1776;BME280;885;42.626;23.200;2023-02-28T08:30:19;167345.38;;;8.09;100.00
1776;BME280;885;42.626;23.200;2023-02-28T08:32:46;167383.97;;;8.23;100.00
1776;BME280;885;42.626;23.200;2023-02-28T08:35:13;167410.16;;;8.32;100.00
1776;BME280;885;42.626;23.200;2023-02-28T08:37:39;167388.09;;;8.24;100.00
1776;BME280;885;42.626;23.200;2023-02-28T08:40:07;167383.97;;;8.23;100.00
1776;BME280;885;42.626;23.200;2023-02-28T08:42:36;167395.03;;;8.27;100.00
1776;BME280;885;42.626;23.200;2023-02-28T08:45:03;167429.44;;;8.39;100.00
1776;BME280;885;42.626;23.200;2023-02-28T08:47:30;167433.56;;;8.41;100.00
1776;BME280;885;42.626;23.200;2023-02-28T08:49:57;167443.19;;;8.44;100.00
1776;BME280;885;42.626;23.200;2023-02-28T08:52:23;167339.88;;;8.07;100.00
1776;BME280;885;42.626;23.200;2023-02-28T08:54:50;167334.38;;;8.04;100.00
1776;BME280;885;42.626;23.200;2023-02-28T08:57:17;167388.09;;;8.24;100.00
1776;BME280;885;42.626;23.200;2023-02-28T08:59:45;167451.47;;;8.47;100.00
1776;BME280;885;42.626;23.200;2023-02-28T09:02:12;167490.03;;;8.61;100.00
1776;BME280;885;42.626;23.200;2023-02-28T09:04:39;167510.72;;;8.69;100.00
1776;BME280;885;42.626;23.200;2023-02-28T09:07:06;167520.34;;;8.72;100.00
1776;BME280;885;42.626;23.200;2023-02-28T09:09:33;167538.25;;;8.79;100.00
1776;BME280;885;42.626;23.200;2023-02-28T09:12:00;167546.47;;;8.82;100.00
1776;BME280;885;42.626;23.200;2023-02-28T09:14:27;167560.28;;;8.87;100.00
1776;BME280;885;42.626;23.200;2023-02-28T09:16:55;167551.97;;;8.84;100.00
1776;BME280;885;42.626;23.200;2023-02-28T09:19:22;167568.56;;;8.90;100.00
1776;BME280;885;42.626;23.200;2023-02-28T09:21:49;167589.19;;;8.98;100.00
1776;BME280;885;42.626;23.200;2023-02-28T09:24:16;167568.56;;;8.90;100.00
1776;BME280;885;42.626;23.200;2023-02-28T09:26:43;167557.50;;;8.86;100.00
1776;BME280;885;42.626;23.200;2023-02-28T09:29:10;167568.56;;;8.90;100.00
1776;BME280;885;42.626;23.200;2023-02-28T09:31:37;167534.13;;;8.77;100.00
1776;BME280;885;42.626;23.200;2023-02-28T09:34:05;167540.97;;;8.80;100.00
1776;BME280;885;42.626;23.200;2023-02-28T09:36:32;167546.47;;;8.82;100.00
1776;BME280;885;42.626;23.200;2023-02-28T09:39:00;167551.97;;;8.84;100.00
1776;BME280;885;42.626;23.200;2023-02-28T09:41:32;167543.75;;;8.81;100.00
1776;BME280;885;42.626;23.200;2023-02-28T09:44:07;167547.88;;;8.82;100.00
1776;BME280;885;42.626;23.200;2023-02-28T09:46:42;167565.78;;;8.89;100.00
1776;BME280;885;42.626;23.200;2023-02-28T09:49:14;167579.56;;;8.94;100.00
1776;BME280;885;42.626;23.200;2023-02-28T09:51:48;167586.41;;;8.97;100.00
1776;BME280;885;42.626;23.200;2023-02-28T09:54:18;167612.63;;;9.06;100.00
1776;BME280;885;42.626;23.200;2023-02-28T09:56:48;167618.13;;;9.08;100.00
1776;BME280;885;42.626;23.200;2023-02-28T09:59:29;167623.63;;;9.10;100.00
1776;BME280;885;42.626;23.200;2023-02-28T10:02:06;167616.75;;;9.08;100.00
1776;BME280;885;42.626;23.200;2023-02-28T10:04:42;167620.84;;;9.09;100.00
1776;BME280;885;42.626;23.200;2023-02-28T10:07:23;167598.81;;;9.01;100.00
1776;BME280;885;42.626;23.200;2023-02-28T10:09:57;167634.66;;;9.14;100.00
1776;BME280;885;42.626;23.200;2023-02-28T10:12:27;167629.16;;;9.12;100.00
1776;BME280;885;42.626;23.200;2023-02-28T10:14:58;167634.66;;;9.14;100.00
1776;BME280;885;42.626;23.200;2023-02-28T10:17:35;167649.78;;;9.20;100.00
1776;BME280;885;42.626;23.200;2023-02-28T10:20:10;167678.72;;;9.30;100.00
1776;BME280;885;42.626;23.200;2023-02-28T10:22:50;167703.56;;;9.39;100.00
1776;BME280;885;42.626;23.200;2023-02-28T10:25:21;167733.88;;;9.50;100.00
1776;BME280;885;42.626;23.200;2023-02-28T10:27:49;167761.44;;;9.60;100.00
1776;BME280;885;42.626;23.200;2023-02-28T10:30:16;167775.19;;;9.66;100.00
1776;BME280;885;42.626;23.200;2023-02-28T10:32:48;167775.19;;;9.66;100.00
1776;BME280;885;42.626;23.200;2023-02-28T10:35:21;167766.94;;;9.63;100.00
1776;BME280;885;42.626;23.200;2023-02-28T10:37:50;167791.78;;;9.72;100.00
1776;BME280;885;42.626;23.200;2023-02-28T10:40:32;167817.94;;;9.81;100.00
1776;BME280;885;42.626;23.200;2023-02-28T10:43:02;167834.47;;;9.87;100.00
1776;BME280;885;42.626;23.200;2023-02-28T10:45:30;167867.53;;;9.99;100.00
1776;BME280;885;42.626;23.200;2023-02-28T10:48:00;167866.19;;;9.99;100.00
1776;BME280;885;42.626;23.200;2023-02-28T10:50:34;167860.69;;;9.97;100.00
1776;BME280;885;42.626;23.200;2023-02-28T10:53:28;167835.88;;;9.88;100.00
1776;BME280;885;42.626;23.200;2023-02-28T10:55:59;167877.22;;;10.03;100.00
1776;BME280;885;42.626;23.200;2023-02-28T10:58:30;167899.34;;;10.11;100.00
1776;BME280;885;42.626;23.200;2023-02-28T11:00:58;167951.75;;;10.30;100.00
1776;BME280;885;42.626;23.200;2023-02-28T11:03:30;167979.31;;;10.40;100.00
1776;BME280;885;42.626;23.200;2023-02-28T11:06:04;167995.84;;;10.46;100.00
1776;BME280;885;42.626;23.200;2023-02-28T11:08:32;168012.41;;;10.52;100.00
1776;BME280;885;42.626;23.200;2023-02-28T11:11:04;168039.97;;;10.62;100.00
1776;BME280;885;42.626;23.200;2023-02-28T11:13:33;168082.75;;;10.78;100.00
1776;BME280;885;42.626;23.200;2023-02-28T11:16:03;168114.44;;;10.89;100.00
1776;BME280;885;42.626;23.200;2023-02-28T11:18:36;168110.31;;;10.88;100.00
1776;BME280;885;42.626;23.200;2023-02-28T11:21:07;168139.31;;;10.98;100.00
1776;BME280;885;42.626;23.200;2023-02-28T11:23:37;168169.66;;;11.09;100.00
1776;BME280;885;42.626;23.200;2023-02-28T11:26:06;168215.19;;;11.26;100.00
1776;BME280;885;42.626;23.200;2023-02-28T11:28:37;168238.66;;;11.35;100.00
1776;BME280;885;42.626;23.200;2023-02-28T11:31:15;168284.19;;;11.51;100.00
1776;BME280;885;42.626;23.200;2023-02-28T11:33:46;168322.84;;;11.65;100.00
1776;BME280;885;42.626;23.200;2023-02-28T11:36:19;168333.94;;;11.69;100.00
1776;BME280;885;42.626;23.200;2023-02-28T11:38:47;168353.28;;;11.76;100.00
1776;BME280;885;42.626;23.200;2023-02-28T11:41:36;168387.78;;;11.89;100.00
1776;BME280;885;42.626;23.200;2023-02-28T11:44:23;168365.72;;;11.81;100.00
1776;BME280;885;42.626;23.200;2023-02-28T11:46:56;168430.56;;;12.05;100.00
1776;BME280;885;42.626;23.200;2023-02-28T11:49:32;168523.06;;;12.38;100.00
1776;BME280;885;42.626;23.200;2023-02-28T11:52:10;168679.19;;;12.95;100.00
1776;BME280;885;42.626;23.200;2023-02-28T11:55:04;168858.91;;;13.61;98.73
1776;BME280;885;42.626;23.200;2023-02-28T11:57:46;168958.47;;;13.97;93.16
1776;BME280;885;42.626;23.200;2023-02-28T12:00:32;169016.53;;;14.18;89.87
1776;BME280;885;42.626;23.200;2023-02-28T12:03:15;169026.19;;;14.21;89.67
1776;BME280;885;42.626;23.200;2023-02-28T12:05:45;169028.94;;;14.22;88.80
1776;BME280;885;42.626;23.200;2023-02-28T12:08:26;168980.56;;;14.05;88.59
1776;BME280;885;42.626;23.200;2023-02-28T12:11:03;168932.16;;;13.87;88.83
1776;BME280;885;42.626;23.200;2023-02-28T12:13:41;168986.09;;;14.07;87.92
1776;BME280;885;42.626;23.200;2023-02-28T12:16:21;168972.25;;;14.02;87.17
1776;BME280;885;42.626;23.200;2023-02-28T12:19:12;169023.41;;;14.20;87.40
1776;BME280;885;42.626;23.200;2023-02-28T12:21:57;169049.78;;;14.30;87.23
1776;BME280;885;42.626;23.200;2023-02-28T12:24:42;169114.75;;;14.54;85.78
1776;BME280;885;42.626;23.200;2023-02-28T12:27:14;169172.84;;;14.75;83.25
1776;BME280;885;42.626;23.200;2023-02-28T12:29:46;169255.88;;;15.05;81.44
1776;BME280;885;42.626;23.200;2023-02-28T12:32:18;169204.69;;;14.86;83.28
1776;BME280;885;42.626;23.200;2023-02-28T12:34:49;169215.75;;;14.90;80.20
1776;BME280;885;42.626;23.200;2023-02-28T12:37:20;169221.28;;;14.92;79.62
1776;BME280;885;42.626;23.200;2023-02-28T12:39:53;169128.59;;;14.59;81.33
1776;BME280;885;42.626;23.200;2023-02-28T12:42:24;168997.16;;;14.11;82.33
1776;BME280;885;42.626;23.200;2023-02-28T12:44:57;168871.34;;;13.65;85.07
1776;BME280;885;42.626;23.200;2023-02-28T12:47:25;168832.59;;;13.51;87.16
1776;BME280;885;42.626;23.200;2023-02-28T12:49:54;168828.47;;;13.49;86.94
1776;BME280;885;42.626;23.200;2023-02-28T12:52:25;168840.94;;;13.54;86.95
1776;BME280;885;42.626;23.200;2023-02-28T12:55:01;168856.13;;;13.60;86.86
1776;BME280;885;42.626;23.200;2023-02-28T12:57:34;168849.25;;;13.57;85.76
1776;BME280;885;42.626;23.200;2023-02-28T13:00:10;168780.13;;;13.32;87.46
1776;BME280;885;42.626;23.200;2023-02-28T13:02:57;168775.94;;;13.30;88.56
1776;BME280;885;42.626;23.200;2023-02-28T13:05:53;168792.53;;;13.36;87.00
1776;BME280;885;42.626;23.200;2023-02-28T13:11:32;168914.19;;;13.81;85.06
1776;BME280;885;42.626;23.200;2023-02-28T13:14:02;168947.41;;;13.93;84.38
1776;BME280;885;42.626;23.200;2023-02-28T13:16:56;168946.00;;;13.92;83.93
1776;BME280;885;42.626;23.200;2023-02-28T13:19:24;168903.13;;;13.77;84.14
1776;BME280;885;42.626;23.200;2023-02-28T13:21:52;168832.59;;;13.51;84.53
1776;BME280;885;42.626;23.200;2023-02-28T13:24:43;168800.84;;;13.39;85.77
1776;BME280;885;42.626;23.200;2023-02-28T13:27:33;168708.25;;;13.06;87.19
1776;BME280;885;42.626;23.200;2023-02-28T13:33:26;168733.16;;;13.15;88.48
1776;BME280;885;42.626;23.200;2023-02-28T13:36:25;168724.81;;;13.12;89.35
1776;BME280;885;42.626;23.200;2023-02-28T13:38:55;168769.09;;;13.28;87.99
1776;BME280;885;42.626;23.200;2023-02-28T13:41:46;168781.47;;;13.32;86.82